sensor_id;sensor_type;location;lat;lon;timestamp;temperature;humidity
51035;DHT22;37062;52.546;13.230;2022-10-17T00:00:45;15.80;99.90
51035;DHT22;37062;52.546;13.230;2022-10-17T00:03:13;15.80;99.90
51035;DHT22;37062;52.546;13.230;2022-10-17T00:05:44;15.80;99.90
51035;DHT22;37062;52.546;13.230;2022-10-17T00:08:14;15.80;99.90
51035;DHT22;37062;52.546;13.230;2022-10-17T00:10:42;15.80;99.90
51035;DHT22;37062;52.546;13.230;2022-10-17T00:13:10;15.80;99.90
51035;DHT22;37062;52.546;13.230;2022-10-17T00:15:40;15.70;99.90
51035;DHT22;37062;52.546;13.230;2022-10-17T00:18:08;15.70;99.90
51035;DHT22;37062;52.546;13.230;2022-10-17T00:20:36;15.60;99.90
51035;DHT22;37062;52.546;13.230;2022-10-17T00:23:05;15.50;99.90
51035;DHT22;37062;52.546;13.230;2022-10-17T00:25:32;15.50;99.90
51035;DHT22;37062;52.546;13.230;2022-10-17T00:27:59;15.50;99.90
51035;DHT22;37062;52.546;13.230;2022-10-17T00:30:27;15.50;99.90
51035;DHT22;37062;52.546;13.230;2022-10-17T00:32:55;15.50;99.90
51035;DHT22;37062;52.546;13.230;2022-10-17T00:35:24;15.40;99.90
51035;DHT22;37062;52.546;13.230;2022-10-17T00:37:51;15.40;99.90
51035;DHT22;37062;52.546;13.230;2022-10-17T00:40:21;15.40;99.90
51035;DHT22;37062;52.546;13.230;2022-10-17T00:42:48;15.40;99.90
51035;DHT22;37062;52.546;13.230;2022-10-17T00:45:22;15.40;99.90
51035;DHT22;37062;52.546;13.230;2022-10-17T00:47:54;15.50;99.90
51035;DHT22;37062;52.546;13.230;2022-10-17T00:50:22;15.60;99.90
51035;DHT22;37062;52.546;13.230;2022-10-17T00:52:51;15.60;99.90
51035;DHT22;37062;52.546;13.230;2022-10-17T00:55:26;15.60;99.90
51035;DHT22;37062;52.546;13.230;2022-10-17T00:57:56;15.60;99.90
51035;DHT22;37062;52.546;13.230;2022-10-17T01:00:25;15.60;99.90
51035;DHT22;37062;52.546;13.230;2022-10-17T01:02:53;15.50;99.90
51035;DHT22;37062;52.546;13.230;2022-10-17T01:05:21;15.50;99.90
51035;DHT22;37062;52.546;13.230;2022-10-17T01:07:50;15.40;99.90
51035;DHT22;37062;52.546;13.230;2022-10-17T01:10:19;15.30;99.90
51035;DHT22;37062;52.546;13.230;2022-10-17T01:12:56;15.30;99.90
51035;DHT22;37062;52.546;13.230;2022-10-17T01:15:36;15.30;99.90
51035;DHT22;37062;52.546;13.230;2022-10-17T01:18:12;15.40;99.90
51035;DHT22;37062;52.546;13.230;2022-10-17T01:21:03;15.40;99.90
51035;DHT22;37062;52.546;13.230;2022-10-17T01:23:52;15.40;99.90
51035;DHT22;37062;52.546;13.230;2022-10-17T01:26:25;15.40;99.90
51035;DHT22;37062;52.546;13.230;2022-10-17T01:29:09;15.40;99.90
51035;DHT22;37062;52.546;13.230;2022-10-17T01:31:45;15.40;99.90
51035;DHT22;37062;52.546;13.230;2022-10-17T01:34:17;15.30;99.90
51035;DHT22;37062;52.546;13.230;2022-10-17T01:36:50;15.30;99.90
51035;DHT22;37062;52.546;13.230;2022-10-17T01:39:23;15.30;99.90
51035;DHT22;37062;52.546;13.230;2022-10-17T01:41:58;15.20;99.90
51035;DHT22;37062;52.546;13.230;2022-10-17T01:44:33;15.20;99.90
51035;DHT22;37062;52.546;13.230;2022-10-17T01:47:07;15.10;99.90
51035;DHT22;37062;52.546;13.230;2022-10-17T01:49:38;15.00;99.90
51035;DHT22;37062;52.546;13.230;2022-10-17T01:52:10;15.00;99.90
51035;DHT22;37062;52.546;13.230;2022-10-17T01:54:42;14.90;99.90
51035;DHT22;37062;52.546;13.230;2022-10-17T01:57:17;14.90;99.90
51035;DHT22;37062;52.546;13.230;2022-10-17T01:59:49;14.80;99.90
51035;DHT22;37062;52.546;13.230;2022-10-17T02:02:22;14.90;99.90
51035;DHT22;37062;52.546;13.230;2022-10-17T02:04:51;14.80;99.90
51035;DHT22;37062;52.546;13.230;2022-10-17T02:07:20;14.90;99.90
51035;DHT22;37062;52.546;13.230;2022-10-17T02:09:47;14.90;99.90
51035;DHT22;37062;52.546;13.230;2022-10-17T02:12:27;15.00;99.90
51035;DHT22;37062;52.546;13.230;2022-10-17T02:15:09;15.00;99.90
51035;DHT22;37062;52.546;13.230;2022-10-17T02:17:47;14.90;99.90
51035;DHT22;37062;52.546;13.230;2022-10-17T02:20:22;14.90;99.90
51035;DHT22;37062;52.546;13.230;2022-10-17T02:22:55;14.90;99.90
51035;DHT22;37062;52.546;13.230;2022-10-17T02:25:32;15.00;99.90
51035;DHT22;37062;52.546;13.230;2022-10-17T02:28:09;15.10;99.90
51035;DHT22;37062;52.546;13.230;2022-10-17T02:30:44;15.10;99.90
51035;DHT22;37062;52.546;13.230;2022-10-17T02:33:17;15.10;99.90
51035;DHT22;37062;52.546;13.230;2022-10-17T02:35:50;15.20;99.90
51035;DHT22;37062;52.546;13.230;2022-10-17T02:38:19;15.20;99.90
51035;DHT22;37062;52.546;13.230;2022-10-17T02:40:49;15.20;99.90
51035;DHT22;37062;52.546;13.230;2022-10-17T02:43:18;15.20;99.90
51035;DHT22;37062;52.546;13.230;2022-10-17T02:45:46;15.30;99.90
51035;DHT22;37062;52.546;13.230;2022-10-17T02:48:19;15.40;99.90
51035;DHT22;37062;52.546;13.230;2022-10-17T02:50:53;15.40;99.90
51035;DHT22;37062;52.546;13.230;2022-10-17T02:53:29;15.50;99.90
51035;DHT22;37062;52.546;13.230;2022-10-17T02:56:03;15.60;99.90
51035;DHT22;37062;52.546;13.230;2022-10-17T02:58:34;15.60;99.90
51035;DHT22;37062;52.546;13.230;2022-10-17T03:01:03;15.60;99.90
51035;DHT22;37062;52.546;13.230;2022-10-17T03:03:32;15.60;99.90
51035;DHT22;37062;52.546;13.230;2022-10-17T03:06:01;15.60;99.90
51035;DHT22;37062;52.546;13.230;2022-10-17T03:08:28;15.60;99.90
51035;DHT22;37062;52.546;13.230;2022-10-17T03:10:56;15.70;99.90
51035;DHT22;37062;52.546;13.230;2022-10-17T03:13:25;15.80;99.90
51035;DHT22;37062;52.546;13.230;2022-10-17T03:15:53;15.80;99.90
51035;DHT22;37062;52.546;13.230;2022-10-17T03:18:23;15.90;99.90
51035;DHT22;37062;52.546;13.230;2022-10-17T03:20:57;15.90;99.90
51035;DHT22;37062;52.546;13.230;2022-10-17T03:23:24;16.00;99.90
51035;DHT22;37062;52.546;13.230;2022-10-17T03:25:52;16.00;99.90
51035;DHT22;37062;52.546;13.230;2022-10-17T03:28:21;16.00;99.90
51035;DHT22;37062;52.546;13.230;2022-10-17T03:30:49;16.00;99.90
51035;DHT22;37062;52.546;13.230;2022-10-17T03:33:16;16.00;99.90
51035;DHT22;37062;52.546;13.230;2022-10-17T03:35:44;16.00;99.90
51035;DHT22;37062;52.546;13.230;2022-10-17T03:38:13;15.90;99.90
51035;DHT22;37062;52.546;13.230;2022-10-17T03:40:41;15.90;99.90
51035;DHT22;37062;52.546;13.230;2022-10-17T03:43:09;15.90;99.90
51035;DHT22;37062;52.546;13.230;2022-10-17T03:45:39;15.90;99.90
51035;DHT22;37062;52.546;13.230;2022-10-17T03:48:06;15.90;99.90
51035;DHT22;37062;52.546;13.230;2022-10-17T03:50:34;15.90;99.90
51035;DHT22;37062;52.546;13.230;2022-10-17T03:53:02;15.90;99.90
51035;DHT22;37062;52.546;13.230;2022-10-17T03:55:31;15.90;99.90
51035;DHT22;37062;52.546;13.230;2022-10-17T03:57:58;15.90;99.90
51035;DHT22;37062;52.546;13.230;2022-10-17T04:00:28;15.80;99.90
51035;DHT22;37062;52.546;13.230;2022-10-17T04:02:57;15.80;99.90
51035;DHT22;37062;52.546;13.230;2022-10-17T04:05:26;15.80;99.90
51035;DHT22;37062;52.546;13.230;2022-10-17T04:07:53;15.80;99.90
51035;DHT22;37062;52.546;13.230;2022-10-17T04:10:42;15.80;99.90
51035;DHT22;37062;52.546;13.230;2022-10-17T04:13:09;15.80;99.90
51035;DHT22;37062;52.546;13.230;2022-10-17T04:15:37;15.80;99.90
51035;DHT22;37062;52.546;13.230;2022-10-17T04:18:05;15.80;99.90
51035;DHT22;37062;52.546;13.230;2022-10-17T04:20:33;15.80;99.90
51035;DHT22;37062;52.546;13.230;2022-10-17T04:23:01;15.80;99.90
51035;DHT22;37062;52.546;13.230;2022-10-17T04:25:29;15.80;99.90
51035;DHT22;37062;52.546;13.230;2022-10-17T04:27:57;15.80;99.90
51035;DHT22;37062;52.546;13.230;2022-10-17T04:30:25;15.80;99.90
51035;DHT22;37062;52.546;13.230;2022-10-17T04:32:52;15.80;99.90
51035;DHT22;37062;52.546;13.230;2022-10-17T04:35:21;15.80;99.90
51035;DHT22;37062;52.546;13.230;2022-10-17T04:37:56;15.80;99.90
51035;DHT22;37062;52.546;13.230;2022-10-17T04:40:24;15.80;99.90
51035;DHT22;37062;52.546;13.230;2022-10-17T04:42:52;15.70;99.90
51035;DHT22;37062;52.546;13.230;2022-10-17T04:45:29;15.70;99.90
51035;DHT22;37062;52.546;13.230;2022-10-17T04:48:01;15.60;99.90
51035;DHT22;37062;52.546;13.230;2022-10-17T04:50:28;15.60;99.90
51035;DHT22;37062;52.546;13.230;2022-10-17T04:53:17;15.60;99.90
51035;DHT22;37062;52.546;13.230;2022-10-17T04:55:44;15.60;99.90
51035;DHT22;37062;52.546;13.230;2022-10-17T04:58:12;15.60;99.90
51035;DHT22;37062;52.546;13.230;2022-10-17T05:00:41;15.60;99.90
51035;DHT22;37062;52.546;13.230;2022-10-17T05:03:19;15.60;99.90
51035;DHT22;37062;52.546;13.230;2022-10-17T05:05:46;15.60;99.90
51035;DHT22;37062;52.546;13.230;2022-10-17T05:08:14;15.60;99.90
51035;DHT22;37062;52.546;13.230;2022-10-17T05:10:43;15.60;99.90
51035;DHT22;37062;52.546;13.230;2022-10-17T05:13:11;15.60;99.90
51035;DHT22;37062;52.546;13.230;2022-10-17T05:15:41;15.60;99.90
51035;DHT22;37062;52.546;13.230;2022-10-17T05:18:10;15.60;99.90
51035;DHT22;37062;52.546;13.230;2022-10-17T05:20:41;15.60;99.90
51035;DHT22;37062;52.546;13.230;2022-10-17T05:23:09;15.60;99.90
51035;DHT22;37062;52.546;13.230;2022-10-17T05:25:40;15.60;99.90
51035;DHT22;37062;52.546;13.230;2022-10-17T05:28:08;15.50;99.90
51035;DHT22;37062;52.546;13.230;2022-10-17T05:30:38;15.60;99.90
51035;DHT22;37062;52.546;13.230;2022-10-17T05:33:09;15.60;99.90
51035;DHT22;37062;52.546;13.230;2022-10-17T05:35:36;15.70;99.90
51035;DHT22;37062;52.546;13.230;2022-10-17T05:38:05;15.60;99.90
51035;DHT22;37062;52.546;13.230;2022-10-17T05:40:34;15.70;99.90
51035;DHT22;37062;52.546;13.230;2022-10-17T05:43:03;15.70;99.90
51035;DHT22;37062;52.546;13.230;2022-10-17T05:45:31;15.70;99.90
51035;DHT22;37062;52.546;13.230;2022-10-17T05:47:59;15.90;99.90
51035;DHT22;37062;52.546;13.230;2022-10-17T05:50:28;15.90;99.90
51035;DHT22;37062;52.546;13.230;2022-10-17T05:53:04;16.00;99.90
51035;DHT22;37062;52.546;13.230;2022-10-17T05:55:36;16.10;99.90
51035;DHT22;37062;52.546;13.230;2022-10-17T05:58:04;16.10;99.90
51035;DHT22;37062;52.546;13.230;2022-10-17T06:00:36;16.20;99.90
51035;DHT22;37062;52.546;13.230;2022-10-17T06:03:04;16.20;99.90
51035;DHT22;37062;52.546;13.230;2022-10-17T06:05:35;16.30;99.90
51035;DHT22;37062;52.546;13.230;2022-10-17T06:08:03;16.40;99.90
51035;DHT22;37062;52.546;13.230;2022-10-17T06:10:34;16.50;99.90
51035;DHT22;37062;52.546;13.230;2022-10-17T06:13:02;16.60;99.90
51035;DHT22;37062;52.546;13.230;2022-10-17T06:15:29;16.70;99.90
51035;DHT22;37062;52.546;13.230;2022-10-17T06:18:01;16.90;99.90
51035;DHT22;37062;52.546;13.230;2022-10-17T06:20:29;17.00;99.90
51035;DHT22;37062;52.546;13.230;2022-10-17T06:22:58;17.20;99.90
51035;DHT22;37062;52.546;13.230;2022-10-17T06:25:39;17.30;99.90
51035;DHT22;37062;52.546;13.230;2022-10-17T06:28:06;17.50;99.90
51035;DHT22;37062;52.546;13.230;2022-10-17T06:30:34;17.70;99.90
51035;DHT22;37062;52.546;13.230;2022-10-17T06:33:04;17.80;99.90
51035;DHT22;37062;52.546;13.230;2022-10-17T06:35:31;17.80;99.90
51035;DHT22;37062;52.546;13.230;2022-10-17T06:38:02;17.80;99.90
51035;DHT22;37062;52.546;13.230;2022-10-17T06:40:31;17.90;99.90
51035;DHT22;37062;52.546;13.230;2022-10-17T06:42:59;18.10;99.90
51035;DHT22;37062;52.546;13.230;2022-10-17T06:45:53;18.40;99.90
51035;DHT22;37062;52.546;13.230;2022-10-17T06:48:35;18.70;99.90
51035;DHT22;37062;52.546;13.230;2022-10-17T06:51:10;18.90;99.90
51035;DHT22;37062;52.546;13.230;2022-10-17T06:53:48;19.10;99.90
51035;DHT22;37062;52.546;13.230;2022-10-17T06:56:36;19.30;99.90
51035;DHT22;37062;52.546;13.230;2022-10-17T06:59:15;19.60;99.90
51035;DHT22;37062;52.546;13.230;2022-10-17T07:01:50;19.90;99.90
51035;DHT22;37062;52.546;13.230;2022-10-17T07:04:18;20.40;99.90
51035;DHT22;37062;52.546;13.230;2022-10-17T07:06:46;20.90;99.90
51035;DHT22;37062;52.546;13.230;2022-10-17T07:09:21;21.30;99.90
51035;DHT22;37062;52.546;13.230;2022-10-17T07:11:50;21.80;99.90
51035;DHT22;37062;52.546;13.230;2022-10-17T07:14:18;22.30;99.90
51035;DHT22;37062;52.546;13.230;2022-10-17T07:16:46;22.80;99.90
51035;DHT22;37062;52.546;13.230;2022-10-17T07:19:20;23.10;99.90
51035;DHT22;37062;52.546;13.230;2022-10-17T07:21:49;23.20;99.90
51035;DHT22;37062;52.546;13.230;2022-10-17T07:24:17;23.10;99.90
51035;DHT22;37062;52.546;13.230;2022-10-17T07:26:49;23.00;99.90
51035;DHT22;37062;52.546;13.230;2022-10-17T07:29:17;23.00;99.90
51035;DHT22;37062;52.546;13.230;2022-10-17T07:31:55;23.20;99.90
51035;DHT22;37062;52.546;13.230;2022-10-17T07:34:23;23.50;99.90
51035;DHT22;37062;52.546;13.230;2022-10-17T07:36:53;23.80;99.90
51035;DHT22;37062;52.546;13.230;2022-10-17T07:39:20;24.10;99.90
51035;DHT22;37062;52.546;13.230;2022-10-17T07:41:49;24.70;99.90
51035;DHT22;37062;52.546;13.230;2022-10-17T07:44:17;25.40;99.90
51035;DHT22;37062;52.546;13.230;2022-10-17T07:46:48;25.90;99.90
51035;DHT22;37062;52.546;13.230;2022-10-17T07:49:17;26.30;99.90
51035;DHT22;37062;52.546;13.230;2022-10-17T07:51:46;26.60;99.90
51035;DHT22;37062;52.546;13.230;2022-10-17T07:54:14;26.70;99.90
51035;DHT22;37062;52.546;13.230;2022-10-17T07:56:41;26.90;99.90
51035;DHT22;37062;52.546;13.230;2022-10-17T07:59:10;26.90;99.90
51035;DHT22;37062;52.546;13.230;2022-10-17T08:01:38;26.50;99.90
51035;DHT22;37062;52.546;13.230;2022-10-17T08:04:05;25.90;99.90
51035;DHT22;37062;52.546;13.230;2022-10-17T08:06:32;25.40;99.90
51035;DHT22;37062;52.546;13.230;2022-10-17T08:09:00;25.30;99.90
51035;DHT22;37062;52.546;13.230;2022-10-17T08:11:27;25.20;99.90
51035;DHT22;37062;52.546;13.230;2022-10-17T08:13:55;24.70;99.90
51035;DHT22;37062;52.546;13.230;2022-10-17T08:16:24;24.30;99.90
51035;DHT22;37062;52.546;13.230;2022-10-17T08:18:51;23.90;99.90
51035;DHT22;37062;52.546;13.230;2022-10-17T08:21:19;23.70;99.90
51035;DHT22;37062;52.546;13.230;2022-10-17T08:23:46;23.40;99.90
51035;DHT22;37062;52.546;13.230;2022-10-17T08:26:14;23.20;99.90
51035;DHT22;37062;52.546;13.230;2022-10-17T08:28:42;23.00;99.90
51035;DHT22;37062;52.546;13.230;2022-10-17T08:31:11;22.90;99.90
51035;DHT22;37062;52.546;13.230;2022-10-17T08:33:40;22.90;99.90
51035;DHT22;37062;52.546;13.230;2022-10-17T08:36:09;22.70;99.90
51035;DHT22;37062;52.546;13.230;2022-10-17T08:38:38;22.60;99.90
51035;DHT22;37062;52.546;13.230;2022-10-17T08:41:14;22.60;99.90
51035;DHT22;37062;52.546;13.230;2022-10-17T08:43:54;22.70;99.90
51035;DHT22;37062;52.546;13.230;2022-10-17T08:46:29;22.60;99.90
51035;DHT22;37062;52.546;13.230;2022-10-17T08:49:00;22.60;99.90
51035;DHT22;37062;52.546;13.230;2022-10-17T08:51:31;22.70;99.90
51035;DHT22;37062;52.546;13.230;2022-10-17T08:54:04;22.70;99.90
51035;DHT22;37062;52.546;13.230;2022-10-17T08:56:39;22.70;99.90
51035;DHT22;37062;52.546;13.230;2022-10-17T08:59:10;22.80;99.90
51035;DHT22;37062;52.546;13.230;2022-10-17T09:01:44;23.20;99.90
51035;DHT22;37062;52.546;13.230;2022-10-17T09:07:27;23.40;99.90
51035;DHT22;37062;52.546;13.230;2022-10-17T09:10:03;23.40;99.90
51035;DHT22;37062;52.546;13.230;2022-10-17T09:12:39;23.30;99.90
51035;DHT22;37062;52.546;13.230;2022-10-17T09:15:33;23.20;99.90
51035;DHT22;37062;52.546;13.230;2022-10-17T09:18:10;23.20;99.90
51035;DHT22;37062;52.546;13.230;2022-10-17T09:20:44;23.30;99.90
51035;DHT22;37062;52.546;13.230;2022-10-17T09:23:15;23.30;99.90
51035;DHT22;37062;52.546;13.230;2022-10-17T09:25:44;23.50;99.90
51035;DHT22;37062;52.546;13.230;2022-10-17T09:28:16;23.90;99.90
51035;DHT22;37062;52.546;13.230;2022-10-17T09:30:46;24.30;99.90
51035;DHT22;37062;52.546;13.230;2022-10-17T09:33:17;24.80;99.90
51035;DHT22;37062;52.546;13.230;2022-10-17T09:35:46;25.30;99.90
51035;DHT22;37062;52.546;13.230;2022-10-17T09:38:16;25.80;99.90
51035;DHT22;37062;52.546;13.230;2022-10-17T09:40:47;26.20;99.90
51035;DHT22;37062;52.546;13.230;2022-10-17T09:43:16;26.50;99.90
51035;DHT22;37062;52.546;13.230;2022-10-17T09:45:49;26.40;99.90
51035;DHT22;37062;52.546;13.230;2022-10-17T09:48:23;26.30;99.90
51035;DHT22;37062;52.546;13.230;2022-10-17T09:50:55;26.20;99.90
51035;DHT22;37062;52.546;13.230;2022-10-17T09:53:28;26.00;99.90
51035;DHT22;37062;52.546;13.230;2022-10-17T09:55:57;25.80;99.90
51035;DHT22;37062;52.546;13.230;2022-10-17T09:58:39;25.60;99.90
51035;DHT22;37062;52.546;13.230;2022-10-17T10:01:19;25.50;99.90
51035;DHT22;37062;52.546;13.230;2022-10-17T10:03:48;25.30;99.90
51035;DHT22;37062;52.546;13.230;2022-10-17T10:06:18;25.20;99.90
51035;DHT22;37062;52.546;13.230;2022-10-17T10:08:49;24.90;99.90
51035;DHT22;37062;52.546;13.230;2022-10-17T10:11:18;24.70;99.90
51035;DHT22;37062;52.546;13.230;2022-10-17T10:13:47;24.60;99.90
51035;DHT22;37062;52.546;13.230;2022-10-17T10:16:18;24.60;99.90
51035;DHT22;37062;52.546;13.230;2022-10-17T10:18:47;24.60;99.90
51035;DHT22;37062;52.546;13.230;2022-10-17T10:21:18;24.60;99.90
51035;DHT22;37062;52.546;13.230;2022-10-17T10:24:09;24.60;99.90
51035;DHT22;37062;52.546;13.230;2022-10-17T10:26:39;24.60;99.90
51035;DHT22;37062;52.546;13.230;2022-10-17T10:29:21;24.60;99.90
51035;DHT22;37062;52.546;13.230;2022-10-17T10:31:50;24.80;99.90
51035;DHT22;37062;52.546;13.230;2022-10-17T10:34:20;24.90;99.90
51035;DHT22;37062;52.546;13.230;2022-10-17T10:36:57;24.90;99.90
51035;DHT22;37062;52.546;13.230;2022-10-17T10:39:47;24.90;99.90
51035;DHT22;37062;52.546;13.230;2022-10-17T10:42:22;24.90;99.90
51035;DHT22;37062;52.546;13.230;2022-10-17T10:44:53;25.00;99.90
51035;DHT22;37062;52.546;13.230;2022-10-17T10:47:23;25.00;99.90
51035;DHT22;37062;52.546;13.230;2022-10-17T10:49:52;25.00;99.90
51035;DHT22;37062;52.546;13.230;2022-10-17T10:52:40;25.00;99.90
51035;DHT22;37062;52.546;13.230;2022-10-17T10:55:21;24.90;99.90
51035;DHT22;37062;52.546;13.230;2022-10-17T10:57:53;24.90;99.90
51035;DHT22;37062;52.546;13.230;2022-10-17T11:00:24;24.90;99.90
51035;DHT22;37062;52.546;13.230;2022-10-17T11:02:58;24.90;99.90
51035;DHT22;37062;52.546;13.230;2022-10-17T11:05:36;25.00;99.90
51035;DHT22;37062;52.546;13.230;2022-10-17T11:08:15;24.90;99.90
51035;DHT22;37062;52.546;13.230;2022-10-17T11:11:05;24.90;99.90
51035;DHT22;37062;52.546;13.230;2022-10-17T11:13:40;24.90;99.90
51035;DHT22;37062;52.546;13.230;2022-10-17T11:16:19;24.90;99.90
51035;DHT22;37062;52.546;13.230;2022-10-17T11:18:54;24.90;99.90
51035;DHT22;37062;52.546;13.230;2022-10-17T11:21:33;24.90;99.90
51035;DHT22;37062;52.546;13.230;2022-10-17T11:24:13;24.90;99.90
51035;DHT22;37062;52.546;13.230;2022-10-17T11:26:50;24.90;99.90
51035;DHT22;37062;52.546;13.230;2022-10-17T11:29:29;24.90;99.90
51035;DHT22;37062;52.546;13.230;2022-10-17T11:32:00;25.00;99.90
51035;DHT22;37062;52.546;13.230;2022-10-17T11:34:31;25.00;99.90
51035;DHT22;37062;52.546;13.230;2022-10-17T11:37:07;24.90;99.90
51035;DHT22;37062;52.546;13.230;2022-10-17T11:39:42;24.90;99.90
51035;DHT22;37062;52.546;13.230;2022-10-17T11:42:18;25.10;99.90
51035;DHT22;37062;52.546;13.230;2022-10-17T11:44:48;25.10;99.90
51035;DHT22;37062;52.546;13.230;2022-10-17T11:47:28;25.10;99.90
51035;DHT22;37062;52.546;13.230;2022-10-17T11:50:02;25.20;99.90
51035;DHT22;37062;52.546;13.230;2022-10-17T11:52:36;25.20;99.90
51035;DHT22;37062;52.546;13.230;2022-10-17T11:55:12;25.20;99.90
51035;DHT22;37062;52.546;13.230;2022-10-17T11:57:50;25.20;99.90
51035;DHT22;37062;52.546;13.230;2022-10-17T12:00:24;25.30;99.90
51035;DHT22;37062;52.546;13.230;2022-10-17T12:03:00;25.30;99.90
51035;DHT22;37062;52.546;13.230;2022-10-17T12:05:33;25.40;99.90
51035;DHT22;37062;52.546;13.230;2022-10-17T12:08:10;25.50;99.90
51035;DHT22;37062;52.546;13.230;2022-10-17T12:10:46;25.50;99.90
51035;DHT22;37062;52.546;13.230;2022-10-17T12:13:46;25.50;99.90
51035;DHT22;37062;52.546;13.230;2022-10-17T12:16:41;25.50;99.90
51035;DHT22;37062;52.546;13.230;2022-10-17T12:22:19;25.60;99.90
51035;DHT22;37062;52.546;13.230;2022-10-17T12:24:55;25.50;99.90
51035;DHT22;37062;52.546;13.230;2022-10-17T12:27:47;25.50;99.90
51035;DHT22;37062;52.546;13.230;2022-10-17T12:30:21;25.50;99.90
51035;DHT22;37062;52.546;13.230;2022-10-17T12:33:01;25.60;99.90
51035;DHT22;37062;52.546;13.230;2022-10-17T12:35:31;25.60;99.90
51035;DHT22;37062;52.546;13.230;2022-10-17T12:38:00;25.70;99.90
51035;DHT22;37062;52.546;13.230;2022-10-17T12:43:47;25.80;99.90
51035;DHT22;37062;52.546;13.230;2022-10-17T12:46:40;25.80;99.90
51035;DHT22;37062;52.546;13.230;2022-10-17T12:49:23;25.70;99.90
51035;DHT22;37062;52.546;13.230;2022-10-17T12:55:08;25.70;99.90
51035;DHT22;37062;52.546;13.230;2022-10-17T12:57:51;25.80;99.90
51035;DHT22;37062;52.546;13.230;2022-10-17T13:00:33;25.80;99.90
51035;DHT22;37062;52.546;13.230;2022-10-17T13:03:05;25.80;99.90
51035;DHT22;37062;52.546;13.230;2022-10-17T13:05:38;25.80;99.90
51035;DHT22;37062;52.546;13.230;2022-10-17T13:08:14;25.80;99.90
51035;DHT22;37062;52.546;13.230;2022-10-17T13:10:45;25.90;99.90
51035;DHT22;37062;52.546;13.230;2022-10-17T13:13:15;25.90;99.90
51035;DHT22;37062;52.546;13.230;2022-10-17T13:15:50;25.80;99.90
51035;DHT22;37062;52.546;13.230;2022-10-17T13:18:21;25.90;99.90
51035;DHT22;37062;52.546;13.230;2022-10-17T13:20:57;25.90;99.90
51035;DHT22;37062;52.546;13.230;2022-10-17T13:23:28;25.90;99.90
51035;DHT22;37062;52.546;13.230;2022-10-17T13:26:12;26.00;99.90
51035;DHT22;37062;52.546;13.230;2022-10-17T13:28:41;26.10;99.90
51035;DHT22;37062;52.546;13.230;2022-10-17T13:31:26;26.10;99.90
51035;DHT22;37062;52.546;13.230;2022-10-17T13:33:55;26.20;99.90
51035;DHT22;37062;52.546;13.230;2022-10-17T13:36:23;26.20;99.90
51035;DHT22;37062;52.546;13.230;2022-10-17T13:38:51;26.30;99.90
51035;DHT22;37062;52.546;13.230;2022-10-17T13:41:24;26.40;99.90
51035;DHT22;37062;52.546;13.230;2022-10-17T13:43:53;26.30;99.90
51035;DHT22;37062;52.546;13.230;2022-10-17T13:46:27;26.30;99.90
51035;DHT22;37062;52.546;13.230;2022-10-17T13:48:56;26.30;99.90
51035;DHT22;37062;52.546;13.230;2022-10-17T13:51:25;26.30;99.90
51035;DHT22;37062;52.546;13.230;2022-10-17T13:53:53;26.30;99.90
51035;DHT22;37062;52.546;13.230;2022-10-17T13:56:23;26.20;99.90
51035;DHT22;37062;52.546;13.230;2022-10-17T13:58:52;26.20;99.90
51035;DHT22;37062;52.546;13.230;2022-10-17T14:01:25;26.10;99.90
51035;DHT22;37062;52.546;13.230;2022-10-17T14:03:53;26.10;99.90
51035;DHT22;37062;52.546;13.230;2022-10-17T14:06:21;26.10;99.90
51035;DHT22;37062;52.546;13.230;2022-10-17T14:08:56;26.10;99.90
51035;DHT22;37062;52.546;13.230;2022-10-17T14:11:28;26.00;99.90
51035;DHT22;37062;52.546;13.230;2022-10-17T14:13:57;26.00;99.90
51035;DHT22;37062;52.546;13.230;2022-10-17T14:16:33;26.00;99.90
51035;DHT22;37062;52.546;13.230;2022-10-17T14:19:01;26.00;99.90
51035;DHT22;37062;52.546;13.230;2022-10-17T14:21:28;26.00;99.90
51035;DHT22;37062;52.546;13.230;2022-10-17T14:24:25;26.00;99.90
51035;DHT22;37062;52.546;13.230;2022-10-17T14:26:54;25.90;99.90
51035;DHT22;37062;52.546;13.230;2022-10-17T14:29:25;25.90;99.90
51035;DHT22;37062;52.546;13.230;2022-10-17T14:31:59;25.90;99.90
51035;DHT22;37062;52.546;13.230;2022-10-17T14:34:31;25.80;99.90
51035;DHT22;37062;52.546;13.230;2022-10-17T14:37:00;25.90;99.90
51035;DHT22;37062;52.546;13.230;2022-10-17T14:39:28;25.80;99.90
51035;DHT22;37062;52.546;13.230;2022-10-17T14:41:56;25.80;99.90
51035;DHT22;37062;52.546;13.230;2022-10-17T14:44:26;25.70;99.90
51035;DHT22;37062;52.546;13.230;2022-10-17T14:46:58;25.70;99.90
51035;DHT22;37062;52.546;13.230;2022-10-17T14:49:32;25.60;99.90
51035;DHT22;37062;52.546;13.230;2022-10-17T14:52:24;25.60;99.90
51035;DHT22;37062;52.546;13.230;2022-10-17T14:54:52;25.50;99.90
51035;DHT22;37062;52.546;13.230;2022-10-17T14:57:24;25.40;99.90
51035;DHT22;37062;52.546;13.230;2022-10-17T14:59:53;25.30;99.90
51035;DHT22;37062;52.546;13.230;2022-10-17T15:02:22;25.30;99.90
51035;DHT22;37062;52.546;13.230;2022-10-17T15:04:50;25.20;99.90
51035;DHT22;37062;52.546;13.230;2022-10-17T15:07:18;25.20;99.90
51035;DHT22;37062;52.546;13.230;2022-10-17T15:09:48;25.10;99.90
51035;DHT22;37062;52.546;13.230;2022-10-17T15:12:17;25.10;99.90
51035;DHT22;37062;52.546;13.230;2022-10-17T15:14:45;25.00;99.90
51035;DHT22;37062;52.546;13.230;2022-10-17T15:17:15;25.00;99.90
51035;DHT22;37062;52.546;13.230;2022-10-17T15:19:45;24.90;99.90
51035;DHT22;37062;52.546;13.230;2022-10-17T15:22:12;24.90;99.90
51035;DHT22;37062;52.546;13.230;2022-10-17T15:24:41;24.80;99.90
51035;DHT22;37062;52.546;13.230;2022-10-17T15:27:14;24.80;99.90
51035;DHT22;37062;52.546;13.230;2022-10-17T15:29:42;24.80;99.90
51035;DHT22;37062;52.546;13.230;2022-10-17T15:32:10;24.80;99.90
51035;DHT22;37062;52.546;13.230;2022-10-17T15:34:38;24.70;99.90
51035;DHT22;37062;52.546;13.230;2022-10-17T15:37:15;24.70;99.90
51035;DHT22;37062;52.546;13.230;2022-10-17T15:39:43;24.70;99.90
51035;DHT22;37062;52.546;13.230;2022-10-17T15:42:13;24.60;99.90
51035;DHT22;37062;52.546;13.230;2022-10-17T15:44:40;24.50;99.90
51035;DHT22;37062;52.546;13.230;2022-10-17T15:47:20;24.50;99.90
51035;DHT22;37062;52.546;13.230;2022-10-17T15:49:48;24.40;99.90
51035;DHT22;37062;52.546;13.230;2022-10-17T15:52:23;24.40;99.90
51035;DHT22;37062;52.546;13.230;2022-10-17T15:54:52;24.40;99.90
51035;DHT22;37062;52.546;13.230;2022-10-17T15:57:21;24.30;99.90